Cowplain, United Kingdom
Current Conditions -  °F | °C
As of 5:20 PM on Thursday 27 Nov 2014 (Local Time) from EGHI Reporting Station
Few Clouds Few Clouds  
Wind Chill: 44°   Ceiling: Unl
Heat Index: 46°   Visibility: 4mi
Dew Point: 45°   Wind: 5mph
Humidity: 93%   Direction: 110°ESE
Pressure: 29.53"   Gusts: NA
Location:  50.89°N, 1.02°W
Report Text: EGHI 271720Z 11004KT 7000 FEW018 08/07 Q1000
Loading
Personal Weather Stations






























Interactive Weather Map New forecast layout! Learn more

10-Day Weather Forecast

Advertisements
Track Severe Weather on mobile